Terminal Aerodrome Forecast
Issued by NWS State College, PA

Home | Current Version | Previous Version | Text Only | Print | Product List | Glossary On
Versions: 1 2 3 4 5 6 7 8 9 10 11 12 13 14 15 16 17 18 19 20 21 22 23 24 25 26 27 28
000
FTUS41 KCTP 181512 AAC
TAFIPT
TAF AMD
KIPT 181512Z 1815/1912 28003KT 1/4SM FG OVC002
     FM181600 28005KT 3SM BR OVC007
     FM181800 30008KT P6SM OVC020
     FM190000 29004KT P6SM OVC030=

USA.gov is the U.S. government's official web portal to all federal, state and local government web resources and services.